Pleasant Unity, Pennsylvania
Current Conditions -  °F | °C
As of 1:50 PM on Friday 31 Oct 2014 (Local Time) from KLBE Reporting Station
Overcast Overcast  
Wind Chill: 45°   Ceiling: 5000
Heat Index: 48°   Visibility: 15mi
Dew Point: 37°   Wind: 7mph
Humidity: 66%   Direction: 280°W
Pressure: 29.89"   Gusts: NA
Location:  40.24°N, 79.45°W
Report Text: KLBE 311750Z 28006KT 15SM SCT035 OVC050 09/03 A2989
Loading
Personal Weather Stations






























Interactive Weather Map
Tropical Storm Tracking
New forecast layout! Learn more

10-Day Weather Forecast

Advertisements
Track Severe Weather on mobile